sensor_id;sensor_type;location;lat;lon;timestamp;pressure;altitude;pressure_sealevel;temperature;humidity
10587;BME280;5341;47.606;7.576;2023-02-19T00:01:06;99691.44;;;14.02;63.03
10587;BME280;5341;47.606;7.576;2023-02-19T00:03:34;99696.81;;;14.02;63.38
10587;BME280;5341;47.606;7.576;2023-02-19T00:06:03;99693.28;;;14.01;62.92
10587;BME280;5341;47.606;7.576;2023-02-19T00:08:30;99700.53;;;14.01;63.23
10587;BME280;5341;47.606;7.576;2023-02-19T00:11:04;99702.19;;;14.02;63.13
10587;BME280;5341;47.606;7.576;2023-02-19T00:13:35;99695.16;;;14.01;63.14
10587;BME280;5341;47.606;7.576;2023-02-19T00:16:05;99688.09;;;14.00;63.26
10587;BME280;5341;47.606;7.576;2023-02-19T00:18:32;99691.44;;;14.02;63.12
10587;BME280;5341;47.606;7.576;2023-02-19T00:21:00;99689.59;;;14.02;63.13
10587;BME280;5341;47.606;7.576;2023-02-19T00:23:27;99685.03;;;14.03;63.03
10587;BME280;5341;47.606;7.576;2023-02-19T00:25:55;99682.34;;;14.03;62.99
10587;BME280;5341;47.606;7.576;2023-02-19T00:28:24;99682.34;;;14.03;62.98
10587;BME280;5341;47.606;7.576;2023-02-19T00:30:51;99680.50;;;14.03;62.91
10587;BME280;5341;47.606;7.576;2023-02-19T00:33:19;99678.00;;;14.02;63.06
10587;BME280;5341;47.606;7.576;2023-02-19T00:35:46;99678.00;;;14.02;63.06
10587;BME280;5341;47.606;7.576;2023-02-19T00:38:14;99666.41;;;14.01;63.07
10587;BME280;5341;47.606;7.576;2023-02-19T00:40:41;99667.41;;;14.00;63.10
10587;BME280;5341;47.606;7.576;2023-02-19T00:43:09;99668.44;;;13.99;63.02
10587;BME280;5341;47.606;7.576;2023-02-19T00:45:39;99671.31;;;13.98;62.82
10587;BME280;5341;47.606;7.576;2023-02-19T00:48:06;99676.06;;;13.96;63.11
10587;BME280;5341;47.606;7.576;2023-02-19T00:50:34;99675.41;;;13.94;62.78
10587;BME280;5341;47.606;7.576;2023-02-19T00:53:01;99677.78;;;13.89;63.05
10587;BME280;5341;47.606;7.576;2023-02-19T00:55:28;99684.16;;;13.88;63.21
10587;BME280;5341;47.606;7.576;2023-02-19T00:57:56;99677.31;;;13.85;63.25
10587;BME280;5341;47.606;7.576;2023-02-19T01:00:23;99667.56;;;13.84;63.26
10587;BME280;5341;47.606;7.576;2023-02-19T01:02:52;99679.34;;;13.83;63.04
10587;BME280;5341;47.606;7.576;2023-02-19T01:05:24;99677.69;;;13.82;62.99
10587;BME280;5341;47.606;7.576;2023-02-19T01:07:52;99686.28;;;13.77;62.76
10587;BME280;5341;47.606;7.576;2023-02-19T01:10:19;99693.88;;;13.74;62.92
10587;BME280;5341;47.606;7.576;2023-02-19T01:12:47;99694.53;;;13.76;63.10
10587;BME280;5341;47.606;7.576;2023-02-19T01:15:14;99700.72;;;13.76;63.06
10587;BME280;5341;47.606;7.576;2023-02-19T01:17:41;99702.59;;;13.76;63.12
10587;BME280;5341;47.606;7.576;2023-02-19T01:20:11;99697.03;;;13.77;63.07
10587;BME280;5341;47.606;7.576;2023-02-19T01:22:40;99684.41;;;13.78;63.12
10587;BME280;5341;47.606;7.576;2023-02-19T01:25:08;99683.59;;;13.77;63.17
10587;BME280;5341;47.606;7.576;2023-02-19T01:27:36;99666.44;;;13.78;62.54
10587;BME280;5341;47.606;7.576;2023-02-19T01:30:07;99671.81;;;13.78;62.93
10587;BME280;5341;47.606;7.576;2023-02-19T01:32:34;99660.22;;;13.78;62.68
10587;BME280;5341;47.606;7.576;2023-02-19T01:35:02;99654.00;;;13.77;62.59
10587;BME280;5341;47.606;7.576;2023-02-19T01:37:31;99659.56;;;13.76;62.76
10587;BME280;5341;47.606;7.576;2023-02-19T01:40:02;99658.72;;;13.75;62.92
10587;BME280;5341;47.606;7.576;2023-02-19T01:42:29;99654.19;;;13.76;62.92
10587;BME280;5341;47.606;7.576;2023-02-19T01:45:23;99657.53;;;13.78;62.95
10587;BME280;5341;47.606;7.576;2023-02-19T01:48:00;99646.13;;;13.76;62.52
10587;BME280;5341;47.606;7.576;2023-02-19T01:50:42;99647.16;;;13.75;62.94
10587;BME280;5341;47.606;7.576;2023-02-19T01:53:15;99643.63;;;13.74;63.11
10587;BME280;5341;47.606;7.576;2023-02-19T01:55:54;99654.19;;;13.76;62.95
10587;BME280;5341;47.606;7.576;2023-02-19T01:58:27;99648.16;;;13.74;63.13
10587;BME280;5341;47.606;7.576;2023-02-19T02:00:56;99640.09;;;13.74;63.02
10587;BME280;5341;47.606;7.576;2023-02-19T02:03:24;99643.81;;;13.73;63.11
10587;BME280;5341;47.606;7.576;2023-02-19T02:05:56;99627.69;;;13.73;63.05
10587;BME280;5341;47.606;7.576;2023-02-19T02:08:28;99617.94;;;13.72;62.92
10587;BME280;5341;47.606;7.576;2023-02-19T02:11:13;99626.19;;;13.70;62.82
10587;BME280;5341;47.606;7.576;2023-02-19T02:13:40;99632.75;;;13.68;63.15
10587;BME280;5341;47.606;7.576;2023-02-19T02:16:21;99629.22;;;13.67;63.05
10587;BME280;5341;47.606;7.576;2023-02-19T02:18:58;99621.16;;;13.67;63.05
10587;BME280;5341;47.606;7.576;2023-02-19T02:21:50;99614.09;;;13.66;62.84
10587;BME280;5341;47.606;7.576;2023-02-19T02:27:37;99604.28;;;13.59;62.54
10587;BME280;5341;47.606;7.576;2023-02-19T02:30:21;99603.44;;;13.58;62.63
10587;BME280;5341;47.606;7.576;2023-02-19T02:33:01;99608.00;;;13.58;62.60
10587;BME280;5341;47.606;7.576;2023-02-19T02:35:46;99618.75;;;13.58;62.66
10587;BME280;5341;47.606;7.576;2023-02-19T02:38:17;99628.47;;;13.59;62.76
10587;BME280;5341;47.606;7.576;2023-02-19T02:40:46;99624.13;;;13.58;62.70
10587;BME280;5341;47.606;7.576;2023-02-19T02:43:15;99627.63;;;13.58;62.70
10587;BME280;5341;47.606;7.576;2023-02-19T02:45:44;99640.25;;;13.58;62.92
10587;BME280;5341;47.606;7.576;2023-02-19T02:48:27;99633.16;;;13.57;62.80
10587;BME280;5341;47.606;7.576;2023-02-19T02:51:00;99626.81;;;13.58;62.86
10587;BME280;5341;47.606;7.576;2023-02-19T02:53:37;99628.81;;;13.56;62.79
10587;BME280;5341;47.606;7.576;2023-02-19T02:56:25;99611.84;;;13.55;63.07
10587;BME280;5341;47.606;7.576;2023-02-19T02:58:55;99607.31;;;13.56;63.06
10587;BME280;5341;47.606;7.576;2023-02-19T03:01:28;99614.72;;;13.54;62.83
10587;BME280;5341;47.606;7.576;2023-02-19T03:04:18;99621.94;;;13.53;62.92
10587;BME280;5341;47.606;7.576;2023-02-19T03:06:49;99619.25;;;13.53;63.00
10587;BME280;5341;47.606;7.576;2023-02-19T03:09:20;99621.28;;;13.51;63.20
10587;BME280;5341;47.606;7.576;2023-02-19T03:11:57;99626.03;;;13.49;63.00
10587;BME280;5341;47.606;7.576;2023-02-19T03:14:46;99644.19;;;13.47;63.00
10587;BME280;5341;47.606;7.576;2023-02-19T03:17:37;99647.19;;;13.44;63.13
10587;BME280;5341;47.606;7.576;2023-02-19T03:20:23;99646.56;;;13.42;63.28
10587;BME280;5341;47.606;7.576;2023-02-19T03:22:52;99651.94;;;13.42;63.01
10587;BME280;5341;47.606;7.576;2023-02-19T03:25:24;99646.72;;;13.40;63.22
10587;BME280;5341;47.606;7.576;2023-02-19T03:28:15;99637.38;;;13.36;62.90
10587;BME280;5341;47.606;7.576;2023-02-19T03:30:48;99632.34;;;13.33;62.97
10587;BME280;5341;47.606;7.576;2023-02-19T03:33:21;99619.91;;;13.32;62.64
10587;BME280;5341;47.606;7.576;2023-02-19T03:35:55;99605.06;;;13.22;62.71
10587;BME280;5341;47.606;7.576;2023-02-19T03:38:27;99600.53;;;13.22;62.78
10587;BME280;5341;47.606;7.576;2023-02-19T03:41:02;99590.81;;;13.21;62.58
10587;BME280;5341;47.606;7.576;2023-02-19T03:43:37;99594.66;;;13.18;62.58
10587;BME280;5341;47.606;7.576;2023-02-19T03:46:08;99609.91;;;13.18;62.71
10587;BME280;5341;47.606;7.576;2023-02-19T03:48:48;99609.75;;;13.19;62.55
10587;BME280;5341;47.606;7.576;2023-02-19T03:51:26;99600.72;;;13.21;62.78
10587;BME280;5341;47.606;7.576;2023-02-19T03:54:04;99583.41;;;13.23;62.73
10587;BME280;5341;47.606;7.576;2023-02-19T03:56:39;99574.31;;;13.24;62.51
10587;BME280;5341;47.606;7.576;2023-02-19T03:59:12;99579.69;;;13.24;62.56
10587;BME280;5341;47.606;7.576;2023-02-19T04:01:44;99609.06;;;13.26;62.65
10587;BME280;5341;47.606;7.576;2023-02-19T04:04:17;99610.72;;;13.27;62.90
10587;BME280;5341;47.606;7.576;2023-02-19T04:06:49;99622.13;;;13.29;63.07
10587;BME280;5341;47.606;7.576;2023-02-19T04:09:20;99626.50;;;13.30;62.90
10587;BME280;5341;47.606;7.576;2023-02-19T04:11:54;99647.13;;;13.29;62.91
10587;BME280;5341;47.606;7.576;2023-02-19T04:14:25;99632.69;;;13.30;62.94
10587;BME280;5341;47.606;7.576;2023-02-19T04:17:00;99614.06;;;13.29;63.00
10587;BME280;5341;47.606;7.576;2023-02-19T04:19:32;99604.16;;;13.29;62.88
10587;BME280;5341;47.606;7.576;2023-02-19T04:22:03;99609.53;;;13.29;63.13
10587;BME280;5341;47.606;7.576;2023-02-19T04:24:36;99625.66;;;13.29;63.08
10587;BME280;5341;47.606;7.576;2023-02-19T04:27:05;99620.47;;;13.28;63.10
10587;BME280;5341;47.606;7.576;2023-02-19T04:29:33;99617.13;;;13.26;63.02
10587;BME280;5341;47.606;7.576;2023-02-19T04:32:00;99621.00;;;13.23;62.96
10587;BME280;5341;47.606;7.576;2023-02-19T04:34:28;99626.38;;;13.23;62.87
10587;BME280;5341;47.606;7.576;2023-02-19T04:36:56;99629.06;;;13.23;62.92
10587;BME280;5341;47.606;7.576;2023-02-19T04:39:24;99624.53;;;13.24;63.03
10587;BME280;5341;47.606;7.576;2023-02-19T04:41:51;99629.06;;;13.23;63.02
10587;BME280;5341;47.606;7.576;2023-02-19T04:44:19;99621.84;;;13.24;63.24
10587;BME280;5341;47.606;7.576;2023-02-19T04:46:46;99625.38;;;13.24;63.06
10587;BME280;5341;47.606;7.576;2023-02-19T04:49:14;99621.00;;;13.23;63.13
10587;BME280;5341;47.606;7.576;2023-02-19T04:51:41;99615.63;;;13.23;63.07
10587;BME280;5341;47.606;7.576;2023-02-19T04:54:10;99606.75;;;13.23;63.25
10587;BME280;5341;47.606;7.576;2023-02-19T04:56:39;99612.94;;;13.23;63.22
10587;BME280;5341;47.606;7.576;2023-02-19T04:59:06;99611.28;;;13.22;62.99
10587;BME280;5341;47.606;7.576;2023-02-19T05:01:33;99616.66;;;13.22;63.03
10587;BME280;5341;47.606;7.576;2023-02-19T05:04:01;99618.50;;;13.22;63.03
10587;BME280;5341;47.606;7.576;2023-02-19T05:06:29;99622.34;;;13.19;63.02
10587;BME280;5341;47.606;7.576;2023-02-19T05:08:57;99620.66;;;13.18;63.09
10587;BME280;5341;47.606;7.576;2023-02-19T05:11:25;99626.03;;;13.18;63.38
10587;BME280;5341;47.606;7.576;2023-02-19T05:13:54;99629.44;;;13.12;63.00
10587;BME280;5341;47.606;7.576;2023-02-19T05:16:21;99623.41;;;13.10;62.96
10587;BME280;5341;47.606;7.576;2023-02-19T05:18:48;99624.25;;;13.10;63.43
10587;BME280;5341;47.606;7.576;2023-02-19T05:21:16;99629.63;;;13.10;63.33
10587;BME280;5341;47.606;7.576;2023-02-19T05:23:43;99628.78;;;13.10;63.11
10587;BME280;5341;47.606;7.576;2023-02-19T05:26:13;99628.97;;;13.08;63.14
10587;BME280;5341;47.606;7.576;2023-02-19T05:28:44;99628.09;;;13.08;63.25
10587;BME280;5341;47.606;7.576;2023-02-19T05:31:12;99637.16;;;13.07;63.11
10587;BME280;5341;47.606;7.576;2023-02-19T05:33:40;99644.94;;;13.02;63.32
10587;BME280;5341;47.606;7.576;2023-02-19T05:36:09;99646.78;;;13.01;63.09
10587;BME280;5341;47.606;7.576;2023-02-19T05:38:38;99650.31;;;13.02;63.25
10587;BME280;5341;47.606;7.576;2023-02-19T05:41:07;99652.16;;;13.01;63.09
10587;BME280;5341;47.606;7.576;2023-02-19T05:43:36;99655.03;;;13.00;63.13
10587;BME280;5341;47.606;7.576;2023-02-19T05:46:05;99662.25;;;12.99;63.52
10587;BME280;5341;47.606;7.576;2023-02-19T05:48:35;99664.91;;;12.99;63.50
10587;BME280;5341;47.606;7.576;2023-02-19T05:51:03;99675.66;;;12.99;63.65
10587;BME280;5341;47.606;7.576;2023-02-19T05:53:32;99683.53;;;13.01;63.67
10587;BME280;5341;47.606;7.576;2023-02-19T05:56:00;99685.22;;;13.02;63.52
10587;BME280;5341;47.606;7.576;2023-02-19T05:58:29;99689.75;;;13.01;63.46
10587;BME280;5341;47.606;7.576;2023-02-19T06:00:56;99683.72;;;12.99;63.36
10587;BME280;5341;47.606;7.576;2023-02-19T06:03:32;99688.25;;;12.99;63.80
10587;BME280;5341;47.606;7.576;2023-02-19T06:06:09;99695.28;;;13.00;63.75
10587;BME280;5341;47.606;7.576;2023-02-19T06:08:38;99695.28;;;13.00;63.73
10587;BME280;5341;47.606;7.576;2023-02-19T06:11:05;99699.81;;;12.99;63.56
10587;BME280;5341;47.606;7.576;2023-02-19T06:13:34;99694.78;;;12.96;63.52
10587;BME280;5341;47.606;7.576;2023-02-19T06:16:03;99705.03;;;12.93;63.41
10587;BME280;5341;47.606;7.576;2023-02-19T06:18:34;99703.56;;;12.82;63.59
10587;BME280;5341;47.606;7.576;2023-02-19T06:21:01;99720.75;;;12.73;63.71
10587;BME280;5341;47.606;7.576;2023-02-19T06:23:30;99721.06;;;12.70;63.65
10587;BME280;5341;47.606;7.576;2023-02-19T06:26:05;99720.75;;;12.65;63.83
10587;BME280;5341;47.606;7.576;2023-02-19T06:28:33;99720.09;;;12.63;64.35
10587;BME280;5341;47.606;7.576;2023-02-19T06:31:01;99715.56;;;12.55;64.39
10587;BME280;5341;47.606;7.576;2023-02-19T06:33:31;99734.03;;;12.50;64.32
10587;BME280;5341;47.606;7.576;2023-02-19T06:36:00;99735.72;;;12.43;64.46
10587;BME280;5341;47.606;7.576;2023-02-19T06:38:28;99739.41;;;12.42;64.87
10587;BME280;5341;47.606;7.576;2023-02-19T06:40:59;99744.59;;;12.43;64.72
10587;BME280;5341;47.606;7.576;2023-02-19T06:43:28;99753.31;;;12.45;64.83
10587;BME280;5341;47.606;7.576;2023-02-19T06:45:57;99754.84;;;12.48;65.10
10587;BME280;5341;47.606;7.576;2023-02-19T06:48:25;99760.53;;;12.53;65.25
10587;BME280;5341;47.606;7.576;2023-02-19T06:50:54;99760.84;;;12.58;65.19
10587;BME280;5341;47.606;7.576;2023-02-19T06:53:22;99759.50;;;12.62;64.99
10587;BME280;5341;47.606;7.576;2023-02-19T06:55:57;99770.72;;;12.66;64.98
10587;BME280;5341;47.606;7.576;2023-02-19T06:58:25;99764.53;;;12.65;64.70
10587;BME280;5341;47.606;7.576;2023-02-19T07:00:54;99770.56;;;12.67;65.06
10587;BME280;5341;47.606;7.576;2023-02-19T07:03:23;99772.22;;;12.68;64.87
10587;BME280;5341;47.606;7.576;2023-02-19T07:05:51;99771.03;;;12.71;64.98
10587;BME280;5341;47.606;7.576;2023-02-19T07:08:21;99768.34;;;12.71;64.57
10587;BME280;5341;47.606;7.576;2023-02-19T07:10:53;99781.13;;;12.69;64.70
10587;BME280;5341;47.606;7.576;2023-02-19T07:13:21;99784.81;;;12.68;64.93
10587;BME280;5341;47.606;7.576;2023-02-19T07:15:49;99784.50;;;12.63;64.97
10587;BME280;5341;47.606;7.576;2023-02-19T07:18:17;99792.53;;;12.63;64.92
10587;BME280;5341;47.606;7.576;2023-02-19T07:20:45;99788.38;;;12.60;65.16
10587;BME280;5341;47.606;7.576;2023-02-19T07:23:13;99791.72;;;12.62;64.95
10587;BME280;5341;47.606;7.576;2023-02-19T07:25:42;99794.88;;;12.57;65.11
10587;BME280;5341;47.606;7.576;2023-02-19T07:28:10;99800.59;;;12.54;65.11
10587;BME280;5341;47.606;7.576;2023-02-19T07:30:39;99800.28;;;12.49;65.60
10587;BME280;5341;47.606;7.576;2023-02-19T07:33:07;99798.59;;;12.48;65.37
10587;BME280;5341;47.606;7.576;2023-02-19T07:35:34;99804.47;;;12.44;65.68
10587;BME280;5341;47.606;7.576;2023-02-19T07:38:02;99808.34;;;12.49;65.46
10587;BME280;5341;47.606;7.576;2023-02-19T07:40:30;99800.28;;;12.49;65.33
10587;BME280;5341;47.606;7.576;2023-02-19T07:43:00;99806.47;;;12.50;65.50
10587;BME280;5341;47.606;7.576;2023-02-19T07:45:28;99819.22;;;12.48;65.59
10587;BME280;5341;47.606;7.576;2023-02-19T07:47:55;99824.06;;;12.44;65.44
10587;BME280;5341;47.606;7.576;2023-02-19T07:50:23;99816.53;;;12.40;65.88
10587;BME280;5341;47.606;7.576;2023-02-19T07:52:51;99821.75;;;12.41;65.67
10587;BME280;5341;47.606;7.576;2023-02-19T07:55:19;99819.88;;;12.42;65.66
10587;BME280;5341;47.606;7.576;2023-02-19T07:57:47;99832.13;;;12.44;66.21
10587;BME280;5341;47.606;7.576;2023-02-19T08:00:18;99833.78;;;12.45;65.55
10587;BME280;5341;47.606;7.576;2023-02-19T08:02:47;99833.63;;;12.47;66.04
10587;BME280;5341;47.606;7.576;2023-02-19T08:05:29;99839.00;;;12.47;65.98
10587;BME280;5341;47.606;7.576;2023-02-19T08:07:58;99833.13;;;12.43;65.99
10587;BME280;5341;47.606;7.576;2023-02-19T08:10:27;99835.81;;;12.43;65.99
10587;BME280;5341;47.606;7.576;2023-02-19T08:13:14;99839.69;;;12.41;66.15
10587;BME280;5341;47.606;7.576;2023-02-19T08:15:55;99850.91;;;12.44;65.87
10587;BME280;5341;47.606;7.576;2023-02-19T08:18:24;99849.91;;;12.45;65.98
10587;BME280;5341;47.606;7.576;2023-02-19T08:20:54;99857.28;;;12.51;65.95
10587;BME280;5341;47.606;7.576;2023-02-19T08:23:22;99860.47;;;12.55;65.97
10587;BME280;5341;47.606;7.576;2023-02-19T08:25:50;99869.53;;;12.54;66.16
10587;BME280;5341;47.606;7.576;2023-02-19T08:28:19;99864.00;;;12.55;66.10
10587;BME280;5341;47.606;7.576;2023-02-19T08:30:47;99867.34;;;12.57;66.49
10587;BME280;5341;47.606;7.576;2023-02-19T08:33:18;99861.81;;;12.59;66.18
10587;BME280;5341;47.606;7.576;2023-02-19T08:35:46;99865.84;;;12.63;66.33
10587;BME280;5341;47.606;7.576;2023-02-19T08:38:15;99861.97;;;12.66;66.07
10587;BME280;5341;47.606;7.576;2023-02-19T08:40:46;99870.88;;;12.66;66.40
10587;BME280;5341;47.606;7.576;2023-02-19T08:43:15;99864.50;;;12.67;66.43
10587;BME280;5341;47.606;7.576;2023-02-19T08:45:44;99860.78;;;12.68;66.39
10587;BME280;5341;47.606;7.576;2023-02-19T08:48:12;99866.81;;;12.70;66.35
10587;BME280;5341;47.606;7.576;2023-02-19T08:50:41;99862.47;;;12.69;66.12
10587;BME280;5341;47.606;7.576;2023-02-19T08:53:09;99866.00;;;12.70;66.25
10587;BME280;5341;47.606;7.576;2023-02-19T08:55:37;99866.00;;;12.70;66.05
10587;BME280;5341;47.606;7.576;2023-02-19T08:58:04;99878.94;;;12.74;66.32
10587;BME280;5341;47.606;7.576;2023-02-19T09:00:32;99878.75;;;12.76;66.06
10587;BME280;5341;47.606;7.576;2023-02-19T09:03:00;99879.09;;;12.73;65.92
10587;BME280;5341;47.606;7.576;2023-02-19T09:05:27;99878.09;;;12.74;65.90
10587;BME280;5341;47.606;7.576;2023-02-19T09:07:56;99876.72;;;12.78;65.75
10587;BME280;5341;47.606;7.576;2023-02-19T09:10:23;99877.91;;;12.75;65.74
10587;BME280;5341;47.606;7.576;2023-02-19T09:12:53;99880.59;;;12.75;65.74
10587;BME280;5341;47.606;7.576;2023-02-19T09:15:26;99889.16;;;12.79;65.75
10587;BME280;5341;47.606;7.576;2023-02-19T09:17:56;99889.47;;;12.84;65.48
10587;BME280;5341;47.606;7.576;2023-02-19T09:20:23;99891.84;;;12.87;65.34
10587;BME280;5341;47.606;7.576;2023-02-19T09:22:58;99890.81;;;12.88;65.32
10587;BME280;5341;47.606;7.576;2023-02-19T09:25:26;99903.41;;;12.87;65.16
10587;BME280;5341;47.606;7.576;2023-02-19T09:27:55;99898.53;;;12.91;65.16
10587;BME280;5341;47.606;7.576;2023-02-19T09:30:23;99900.88;;;12.94;65.15
10587;BME280;5341;47.606;7.576;2023-02-19T09:32:50;99900.69;;;12.96;65.22
10587;BME280;5341;47.606;7.576;2023-02-19T09:35:17;99908.25;;;13.00;64.77
10587;BME280;5341;47.606;7.576;2023-02-19T09:37:45;99904.56;;;13.01;64.46
10587;BME280;5341;47.606;7.576;2023-02-19T09:40:14;99912.94;;;13.06;64.71
10587;BME280;5341;47.606;7.576;2023-02-19T09:42:47;99911.94;;;13.07;64.38
10587;BME280;5341;47.606;7.576;2023-02-19T09:45:20;99911.78;;;13.09;64.14
10587;BME280;5341;47.606;7.576;2023-02-19T09:47:53;99914.47;;;13.09;63.96
10587;BME280;5341;47.606;7.576;2023-02-19T09:50:24;99916.16;;;13.02;63.15
10587;BME280;5341;47.606;7.576;2023-02-19T09:52:55;99913.81;;;12.99;63.48
10587;BME280;5341;47.606;7.576;2023-02-19T09:55:30;99917.81;;;12.95;63.58
10587;BME280;5341;47.606;7.576;2023-02-19T09:58:01;99920.00;;;12.91;63.37
10587;BME280;5341;47.606;7.576;2023-02-19T10:00:33;99918.69;;;12.87;63.18
10587;BME280;5341;47.606;7.576;2023-02-19T10:03:04;99915.81;;;12.88;63.75
10587;BME280;5341;47.606;7.576;2023-02-19T10:05:36;99919.66;;;12.94;64.09
10587;BME280;5341;47.606;7.576;2023-02-19T10:08:08;99928.56;;;13.03;64.18
10587;BME280;5341;47.606;7.576;2023-02-19T10:10:42;99926.19;;;13.08;64.39
10587;BME280;5341;47.606;7.576;2023-02-19T10:13:17;99921.34;;;13.11;64.00
10587;BME280;5341;47.606;7.576;2023-02-19T10:15:47;99920.16;;;13.14;63.90
10587;BME280;5341;47.606;7.576;2023-02-19T10:18:18;99913.13;;;13.13;63.25
10587;BME280;5341;47.606;7.576;2023-02-19T10:20:46;99913.94;;;13.13;63.21
10587;BME280;5341;47.606;7.576;2023-02-19T10:23:15;99907.75;;;13.13;63.02
10587;BME280;5341;47.606;7.576;2023-02-19T10:25:47;99908.41;;;13.15;62.68
10587;BME280;5341;47.606;7.576;2023-02-19T10:28:18;99903.03;;;13.15;62.16
10587;BME280;5341;47.606;7.576;2023-02-19T10:30:50;99902.69;;;13.18;62.24
10587;BME280;5341;47.606;7.576;2023-02-19T10:33:19;99905.75;;;13.23;62.04
10587;BME280;5341;47.606;7.576;2023-02-19T10:35:52;99904.22;;;13.29;61.95
10587;BME280;5341;47.606;7.576;2023-02-19T10:38:22;99897.81;;;13.30;61.59
10587;BME280;5341;47.606;7.576;2023-02-19T10:40:57;99905.38;;;13.34;61.72
10587;BME280;5341;47.606;7.576;2023-02-19T10:43:28;99903.53;;;13.35;61.26
10587;BME280;5341;47.606;7.576;2023-02-19T10:46:17;99904.88;;;13.31;61.28
10587;BME280;5341;47.606;7.576;2023-02-19T10:48:50;99909.59;;;13.29;61.19
10587;BME280;5341;47.606;7.576;2023-02-19T10:51:24;99914.13;;;13.28;60.71
10587;BME280;5341;47.606;7.576;2023-02-19T10:54:06;99913.09;;;13.29;60.94
10587;BME280;5341;47.606;7.576;2023-02-19T10:56:42;99923.34;;;13.34;61.04
10587;BME280;5341;47.606;7.576;2023-02-19T10:59:22;99915.44;;;13.32;60.35
10587;BME280;5341;47.606;7.576;2023-02-19T11:01:55;99928.38;;;13.29;60.66
10587;BME280;5341;47.606;7.576;2023-02-19T11:04:24;99929.75;;;13.33;61.02
10587;BME280;5341;47.606;7.576;2023-02-19T11:06:54;99923.19;;;13.35;60.84
10587;BME280;5341;47.606;7.576;2023-02-19T11:09:26;99926.03;;;13.34;60.45
10587;BME280;5341;47.606;7.576;2023-02-19T11:11:56;99923.19;;;13.27;60.36
10587;BME280;5341;47.606;7.576;2023-02-19T11:14:25;99921.69;;;13.25;60.42
10587;BME280;5341;47.606;7.576;2023-02-19T11:16:56;99915.81;;;13.21;60.80
10587;BME280;5341;47.606;7.576;2023-02-19T11:19:27;99907.91;;;13.19;60.40
10587;BME280;5341;47.606;7.576;2023-02-19T11:21:55;99911.25;;;13.13;60.07
10587;BME280;5341;47.606;7.576;2023-02-19T11:24:28;99909.41;;;13.06;60.22
10587;BME280;5341;47.606;7.576;2023-02-19T11:27:01;99910.94;;;13.00;60.48
10587;BME280;5341;47.606;7.576;2023-02-19T11:29:30;99909.75;;;13.03;61.17
10587;BME280;5341;47.606;7.576;2023-02-19T11:32:21;99909.41;;;13.06;60.91
10587;BME280;5341;47.606;7.576;2023-02-19T11:34:50;99907.56;;;13.06;61.30
10587;BME280;5341;47.606;7.576;2023-02-19T11:37:18;99912.44;;;13.11;61.27
10587;BME280;5341;47.606;7.576;2023-02-19T11:39:47;99909.91;;;13.17;61.25
10587;BME280;5341;47.606;7.576;2023-02-19T11:42:38;99908.91;;;13.27;60.75
10587;BME280;5341;47.606;7.576;2023-02-19T11:45:19;99903.38;;;13.28;60.47
10587;BME280;5341;47.606;7.576;2023-02-19T11:51:12;99901.50;;;13.37;59.90
10587;BME280;5341;47.606;7.576;2023-02-19T11:53:45;99904.50;;;13.42;59.46
10587;BME280;5341;47.606;7.576;2023-02-19T11:56:16;99903.16;;;13.46;59.08
10587;BME280;5341;47.606;7.576;2023-02-19T11:58:54;99903.66;;;13.49;58.84
10587;BME280;5341;47.606;7.576;2023-02-19T12:07:16;99895.22;;;13.61;58.05
10587;BME280;5341;47.606;7.576;2023-02-19T12:09:55;99887.81;;;13.63;58.07
10587;BME280;5341;47.606;7.576;2023-02-19T12:15:28;99883.44;;;13.70;58.39
10587;BME280;5341;47.606;7.576;2023-02-19T12:18:15;99881.25;;;13.65;58.04
10587;BME280;5341;47.606;7.576;2023-02-19T12:20:51;99875.56;;;13.60;58.00
10587;BME280;5341;47.606;7.576;2023-02-19T12:26:21;99869.53;;;13.58;57.91
10587;BME280;5341;47.606;7.576;2023-02-19T12:29:02;99863.81;;;13.53;57.60
10587;BME280;5341;47.606;7.576;2023-02-19T12:37:58;99867.59;;;13.36;57.57
10587;BME280;5341;47.606;7.576;2023-02-19T12:40:45;99869.25;;;13.37;57.46
10587;BME280;5341;47.606;7.576;2023-02-19T12:43:17;99875.66;;;13.36;57.22
10587;BME280;5341;47.606;7.576;2023-02-19T12:45:48;99886.06;;;13.31;57.00
10587;BME280;5341;47.606;7.576;2023-02-19T12:48:26;99882.06;;;13.27;57.22
10587;BME280;5341;47.606;7.576;2023-02-19T12:51:03;99891.97;;;13.26;57.70
10587;BME280;5341;47.606;7.576;2023-02-19T12:53:47;99886.94;;;13.23;57.31
10587;BME280;5341;47.606;7.576;2023-02-19T12:56:19;99895.31;;;13.20;57.05
10587;BME280;5341;47.606;7.576;2023-02-19T12:58:50;99897.84;;;13.22;57.26
10587;BME280;5341;47.606;7.576;2023-02-19T13:01:24;99887.25;;;13.20;56.99
10587;BME280;5341;47.606;7.576;2023-02-19T13:04:15;99888.13;;;13.21;56.55
10587;BME280;5341;47.606;7.576;2023-02-19T13:06:50;99884.75;;;13.18;56.72
10587;BME280;5341;47.606;7.576;2023-02-19T13:09:22;99880.06;;;13.21;56.42
10587;BME280;5341;47.606;7.576;2023-02-19T13:11:55;99875.53;;;13.21;56.55
10587;BME280;5341;47.606;7.576;2023-02-19T13:14:28;99870.47;;;13.26;56.55
10587;BME280;5341;47.606;7.576;2023-02-19T13:17:03;99852.81;;;13.32;56.72
10587;BME280;5341;47.606;7.576;2023-02-19T13:19:36;99857.50;;;13.38;56.71
10587;BME280;5341;47.606;7.576;2023-02-19T13:22:14;99859.47;;;13.44;56.52
10587;BME280;5341;47.606;7.576;2023-02-19T13:25:04;99846.38;;;13.49;56.48
10587;BME280;5341;47.606;7.576;2023-02-19T13:27:56;99855.59;;;13.55;55.99
10587;BME280;5341;47.606;7.576;2023-02-19T13:30:45;99851.56;;;13.59;55.92
10587;BME280;5341;47.606;7.576;2023-02-19T13:33:25;99847.66;;;13.61;55.95
10587;BME280;5341;47.606;7.576;2023-02-19T13:36:13;99845.16;;;13.60;55.43
10587;BME280;5341;47.606;7.576;2023-02-19T13:38:43;99848.34;;;13.63;55.24
10587;BME280;5341;47.606;7.576;2023-02-19T13:41:19;99843.44;;;13.67;55.26
10587;BME280;5341;47.606;7.576;2023-02-19T13:43:54;99852.84;;;13.71;55.12
10587;BME280;5341;47.606;7.576;2023-02-19T13:46:23;99851.66;;;13.73;55.12
10587;BME280;5341;47.606;7.576;2023-02-19T13:51:53;99867.38;;;13.85;54.90
10587;BME280;5341;47.606;7.576;2023-02-19T13:54:26;99870.06;;;13.85;54.61
10587;BME280;5341;47.606;7.576;2023-02-19T13:57:24;99872.59;;;13.86;54.64
10587;BME280;5341;47.606;7.576;2023-02-19T13:59:54;99861.16;;;13.84;54.62
10587;BME280;5341;47.606;7.576;2023-02-19T14:02:39;99863.50;;;13.87;54.78